Time;durP1;ratioP1;P1;durP2;ratioP2;P2;SDS_P1;SDS_P2;PMS_P1;PMS_P2;Temp;Humidity;BMP_temperature;BMP_pressure;BME280_temperature;BME280_humidity;BME280_pressure;Samples;Min_cycle;Max_cycle;Signal;HPM_P1;HPM_P2
2023/11/29 00:00:16;;;;;;;40.78;23.73;;;;;;;;;;4974792;28;20086;-69
2023/11/29 00:02:42;;;;;;;43.22;24.95;;;;;;;;;;4974836;28;20053;-73
2023/11/29 00:05:08;;;;;;;40.45;22.75;;;;;;;;;;4958114;28;20074;-72
2023/11/29 00:07:34;;;;;;;38.58;24.02;;;;;;;;;;4976405;28;20454;-71
2023/11/29 00:09:59;;;;;;;37.97;22.75;;;;;;;;;;4945348;28;20038;-72
2023/11/29 00:12:25;;;;;;;40.60;24.40;;;;;;;;;;4961158;28;20089;-72
2023/11/29 00:14:50;;;;;;;40.10;22.83;;;;;;;;;;4978990;28;20039;-72
2023/11/29 00:17:15;;;;;;;41.88;23.75;;;;;;;;;;4978875;28;20453;-72
2023/11/29 00:19:43;;;;;;;39.92;24.90;;;;;;;;;;4979122;28;20121;-72
2023/11/29 00:22:09;;;;;;;44.72;24.33;;;;;;;;;;4977292;28;20035;-72
2023/11/29 00:24:35;;;;;;;40.15;23.35;;;;;;;;;;4961745;28;20019;-72
2023/11/29 00:27:00;;;;;;;40.08;23.83;;;;;;;;;;4978647;28;20027;-71
2023/11/29 00:29:26;;;;;;;39.97;23.58;;;;;;;;;;4978704;28;20058;-71
2023/11/29 00:31:51;;;;;;;40.13;23.13;;;;;;;;;;4960978;28;20038;-71
2023/11/29 00:34:17;;;;;;;37.45;23.58;;;;;;;;;;4977405;28;20034;-70
2023/11/29 00:36:42;;;;;;;38.35;23.30;;;;;;;;;;4945097;28;20035;-71
2023/11/29 00:39:08;;;;;;;38.50;23.70;;;;;;;;;;4961207;28;20085;-71
2023/11/29 00:41:33;;;;;;;42.40;22.65;;;;;;;;;;4961456;28;20098;-71
2023/11/29 00:43:59;;;;;;;36.03;21.40;;;;;;;;;;4977958;28;20426;-71
2023/11/29 00:46:24;;;;;;;37.10;23.08;;;;;;;;;;4961144;28;20083;-71
2023/11/29 00:48:50;;;;;;;35.08;22.13;;;;;;;;;;4960939;28;20023;-71
2023/11/29 00:51:15;;;;;;;38.88;22.67;;;;;;;;;;4961092;28;20027;-71
2023/11/29 00:53:41;;;;;;;35.35;22.98;;;;;;;;;;4960317;28;20050;-71
2023/11/29 00:56:06;;;;;;;40.03;22.98;;;;;;;;;;4960800;28;20031;-71
2023/11/29 00:58:31;;;;;;;33.85;20.75;;;;;;;;;;4973583;28;20401;-71
2023/11/29 01:00:57;;;;;;;38.20;22.50;;;;;;;;;;4956927;29;20039;-71
2023/11/29 01:03:22;;;;;;;38.60;22.05;;;;;;;;;;4958669;29;20450;-68
2023/11/29 01:05:48;;;;;;;31.00;20.75;;;;;;;;;;4958329;29;20015;-68
2023/11/29 01:08:13;;;;;;;28.25;18.02;;;;;;;;;;4958257;29;20036;-68
2023/11/29 01:10:40;;;;;;;36.13;21.80;;;;;;;;;;4956958;29;20027;-68
2023/11/29 01:13:06;;;;;;;32.08;20.30;;;;;;;;;;4956973;29;20031;-68
2023/11/29 01:15:32;;;;;;;32.72;20.63;;;;;;;;;;4958625;29;20031;-69
2023/11/29 01:17:57;;;;;;;37.88;22.58;;;;;;;;;;4957210;28;20039;-69
2023/11/29 01:20:23;;;;;;;32.00;18.80;;;;;;;;;;4956810;29;20082;-69
2023/11/29 01:22:48;;;;;;;34.85;21.13;;;;;;;;;;4958715;29;20069;-68
2023/11/29 01:25:14;;;;;;;36.70;21.40;;;;;;;;;;4957404;29;20023;-71
2023/11/29 01:27:40;;;;;;;36.55;21.77;;;;;;;;;;4957106;29;20125;-71
2023/11/29 01:30:06;;;;;;;36.08;21.83;;;;;;;;;;4941398;29;20382;-71
2023/11/29 01:32:33;;;;;;;35.17;22.17;;;;;;;;;;4940839;29;20098;-71
2023/11/29 01:34:58;;;;;;;36.75;22.38;;;;;;;;;;4940659;29;20470;-71
2023/11/29 01:37:23;;;;;;;35.22;21.88;;;;;;;;;;4941030;29;20112;-71
2023/11/29 01:39:49;;;;;;;36.03;21.58;;;;;;;;;;4957026;29;20067;-71
2023/11/29 01:42:14;;;;;;;34.80;20.75;;;;;;;;;;4956821;29;20030;-69
2023/11/29 01:44:40;;;;;;;36.05;21.65;;;;;;;;;;4958206;29;20043;-68
2023/11/29 01:47:10;;;;;;;36.17;21.67;;;;;;;;;;4957994;28;20033;-70
2023/11/29 01:49:36;;;;;;;36.92;22.92;;;;;;;;;;4957833;29;20043;-71
2023/11/29 01:52:01;;;;;;;31.73;19.60;;;;;;;;;;4956315;29;20123;-71
2023/11/29 01:54:27;;;;;;;34.20;20.50;;;;;;;;;;4956369;29;20034;-71
2023/11/29 01:56:52;;;;;;;33.72;20.38;;;;;;;;;;4940794;29;20035;-71
2023/11/29 01:59:17;;;;;;;34.22;20.63;;;;;;;;;;4956076;29;20047;-72
2023/11/29 02:01:43;;;;;;;34.83;20.70;;;;;;;;;;4956606;29;20355;-71
2023/11/29 02:04:09;;;;;;;33.45;20.25;;;;;;;;;;4957568;29;20493;-71
2023/11/29 02:06:34;;;;;;;32.72;20.08;;;;;;;;;;4957658;29;20382;-71
2023/11/29 02:09:00;;;;;;;30.20;19.45;;;;;;;;;;4957873;29;20377;-67
2023/11/29 02:11:28;;;;;;;34.22;20.13;;;;;;;;;;4956561;29;20496;-66
2023/11/29 02:13:54;;;;;;;36.38;20.33;;;;;;;;;;4957401;29;20041;-66
2023/11/29 02:16:19;;;;;;;36.25;21.30;;;;;;;;;;4955758;29;20389;-67
2023/11/29 02:18:45;;;;;;;34.22;20.52;;;;;;;;;;4957390;29;20118;-69
2023/11/29 02:21:10;;;;;;;31.50;20.08;;;;;;;;;;4957089;29;20059;-69
2023/11/29 02:23:50;;;;;;;33.47;19.90;;;;;;;;;;4955864;29;20027;-69
2023/11/29 02:26:16;;;;;;;32.70;19.50;;;;;;;;;;4957330;29;20066;-69
2023/11/29 02:28:41;;;;;;;33.05;19.98;;;;;;;;;;4957561;29;20058;-68
2023/11/29 02:31:11;;;;;;;32.85;19.88;;;;;;;;;;4956570;28;20039;-65
2023/11/29 02:33:36;;;;;;;34.15;19.55;;;;;;;;;;4956267;29;20034;-70
2023/11/29 02:36:04;;;;;;;29.52;18.27;;;;;;;;;;4957161;29;20023;-70
2023/11/29 02:38:30;;;;;;;32.05;19.55;;;;;;;;;;4955416;29;20051;-70
2023/11/29 02:40:56;;;;;;;33.50;20.67;;;;;;;;;;4955878;29;20038;-70
2023/11/29 02:43:21;;;;;;;33.03;19.27;;;;;;;;;;4956939;29;20039;-70
2023/11/29 02:45:47;;;;;;;32.63;19.63;;;;;;;;;;4956964;29;20062;-67
2023/11/29 02:48:13;;;;;;;34.25;20.67;;;;;;;;;;4982753;23;20101;-69
2023/11/29 02:50:38;;;;;;;32.47;20.00;;;;;;;;;;4994077;28;20030;-70
2023/11/29 02:53:06;;;;;;;35.78;20.10;;;;;;;;;;4994420;28;20049;-64
2023/11/29 02:55:31;;;;;;;28.10;17.88;;;;;;;;;;4995539;28;20030;-71
2023/11/29 02:57:58;;;;;;;34.42;19.30;;;;;;;;;;4994437;28;20026;-70
2023/11/29 03:00:24;;;;;;;33.95;21.10;;;;;;;;;;4995461;28;20062;-71
2023/11/29 03:02:49;;;;;;;29.45;18.60;;;;;;;;;;5010206;28;20128;-71
2023/11/29 03:05:14;;;;;;;31.77;20.15;;;;;;;;;;5011006;28;20030;-71
2023/11/29 03:07:44;;;;;;;32.22;19.27;;;;;;;;;;4993608;28;20038;-72
2023/11/29 03:10:09;;;;;;;33.20;20.25;;;;;;;;;;4995564;28;20025;-72
2023/11/29 03:12:35;;;;;;;31.95;19.63;;;;;;;;;;4995209;28;20064;-70
2023/11/29 03:15:00;;;;;;;30.60;18.48;;;;;;;;;;4995071;28;20117;-70
2023/11/29 03:17:25;;;;;;;32.92;20.02;;;;;;;;;;4977467;28;20030;-72
2023/11/29 03:19:51;;;;;;;28.23;17.05;;;;;;;;;;4995095;28;20057;-72
2023/11/29 03:22:16;;;;;;;35.15;20.65;;;;;;;;;;4995007;28;20042;-71
2023/11/29 03:24:44;;;;;;;33.50;20.38;;;;;;;;;;4993388;28;20069;-71
2023/11/29 03:27:09;;;;;;;33.20;20.15;;;;;;;;;;4994626;28;20412;-71
2023/11/29 03:29:35;;;;;;;32.75;20.23;;;;;;;;;;4994545;28;20022;-72
2023/11/29 03:32:01;;;;;;;35.97;20.83;;;;;;;;;;4977396;28;20389;-71
2023/11/29 03:34:26;;;;;;;34.58;20.50;;;;;;;;;;4995020;28;20042;-68
2023/11/29 03:36:52;;;;;;;33.72;19.98;;;;;;;;;;4993977;28;20064;-68
2023/11/29 03:39:19;;;;;;;36.92;21.17;;;;;;;;;;4993151;28;20030;-69
2023/11/29 03:41:45;;;;;;;37.08;21.17;;;;;;;;;;4993598;28;20035;-69
2023/11/29 03:44:11;;;;;;;35.10;20.42;;;;;;;;;;4992911;28;20041;-68
2023/11/29 03:46:37;;;;;;;24.95;15.05;;;;;;;;;;4994575;28;20014;-69
2023/11/29 03:49:03;;;;;;;31.42;18.33;;;;;;;;;;5006133;28;20475;-73
2023/11/29 03:51:29;;;;;;;26.63;16.33;;;;;;;;;;5014030;28;20026;-73
2023/11/29 03:53:54;;;;;;;28.25;15.50;;;;;;;;;;4980565;28;20124;-73
2023/11/29 03:56:20;;;;;;;28.42;16.08;;;;;;;;;;5014343;28;20026;-73
2023/11/29 03:58:45;;;;;;;29.27;17.65;;;;;;;;;;5013879;28;20030;-73
2023/11/29 04:01:11;;;;;;;27.48;15.93;;;;;;;;;;5014507;28;20033;-72
2023/11/29 04:03:36;;;;;;;28.58;15.68;;;;;;;;;;5014021;28;20095;-74
2023/11/29 04:06:02;;;;;;;32.20;18.58;;;;;;;;;;5014053;28;20080;-73
2023/11/29 04:08:27;;;;;;;27.92;15.88;;;;;;;;;;5014324;28;20030;-73
2023/11/29 04:10:53;;;;;;;34.22;19.90;;;;;;;;;;5014123;28;20061;-70
2023/11/29 04:13:18;;;;;;;32.13;18.75;;;;;;;;;;5013895;28;20037;-70
2023/11/29 04:15:43;;;;;;;34.33;19.13;;;;;;;;;;4980138;28;20030;-71
2023/11/29 04:18:09;;;;;;;27.38;15.32;;;;;;;;;;5012757;28;20030;-73
2023/11/29 04:20:34;;;;;;;29.13;17.88;;;;;;;;;;5013650;28;20049;-72
2023/11/29 04:23:00;;;;;;;31.17;17.60;;;;;;;;;;5014264;28;20479;-71
2023/11/29 04:25:25;;;;;;;28.20;15.55;;;;;;;;;;5012446;28;20030;-71
2023/11/29 04:27:50;;;;;;;34.35;19.05;;;;;;;;;;5013076;28;20084;-71
2023/11/29 04:30:17;;;;;;;23.52;14.23;;;;;;;;;;4996465;28;20030;-72
2023/11/29 04:32:42;;;;;;;22.98;14.93;;;;;;;;;;4995849;28;20032;-72
2023/11/29 04:35:08;;;;;;;22.77;14.77;;;;;;;;;;5012589;28;20029;-72
2023/11/29 04:37:33;;;;;;;25.90;15.23;;;;;;;;;;5016927;28;20025;-71
2023/11/29 04:39:59;;;;;;;25.95;14.93;;;;;;;;;;4984202;28;20541;-73
2023/11/29 04:42:25;;;;;;;31.00;17.15;;;;;;;;;;4999168;28;20117;-73
2023/11/29 04:44:50;;;;;;;32.88;20.23;;;;;;;;;;4989340;28;20048;-72
2023/11/29 04:47:15;;;;;;;27.80;16.30;;;;;;;;;;4996591;28;20088;-72
2023/11/29 04:49:41;;;;;;;31.30;19.45;;;;;;;;;;4992722;28;20077;-72
2023/11/29 04:52:06;;;;;;;28.90;17.95;;;;;;;;;;4979046;28;20027;-69
2023/11/29 04:54:32;;;;;;;26.95;16.77;;;;;;;;;;4976049;28;20035;-69
2023/11/29 04:56:57;;;;;;;23.83;14.02;;;;;;;;;;4977469;28;20031;-69
2023/11/29 04:59:23;;;;;;;25.45;15.35;;;;;;;;;;4977509;28;20105;-69
2023/11/29 05:01:49;;;;;;;23.80;13.80;;;;;;;;;;4958841;28;20125;-69
2023/11/29 05:04:15;;;;;;;23.00;14.85;;;;;;;;;;4976404;28;20069;-69
2023/11/29 05:06:40;;;;;;;32.75;19.20;;;;;;;;;;4976107;28;20481;-69
2023/11/29 05:09:06;;;;;;;30.52;19.40;;;;;;;;;;4976720;28;20066;-69
2023/11/29 05:11:32;;;;;;;29.40;18.00;;;;;;;;;;4975219;28;20031;-68
2023/11/29 05:13:57;;;;;;;23.13;14.65;;;;;;;;;;4976871;28;20045;-69
2023/11/29 05:16:22;;;;;;;24.73;14.70;;;;;;;;;;4976356;28;20038;-69
2023/11/29 05:18:48;;;;;;;25.25;14.63;;;;;;;;;;4975843;28;20034;-72
2023/11/29 05:21:13;;;;;;;24.25;14.25;;;;;;;;;;4975919;28;20034;-68
2023/11/29 05:23:39;;;;;;;24.17;14.88;;;;;;;;;;4975475;28;20019;-73
2023/11/29 05:26:05;;;;;;;26.05;15.15;;;;;;;;;;4975901;28;20053;-73
2023/11/29 05:28:33;;;;;;;26.63;16.02;;;;;;;;;;4977294;28;20035;-71
2023/11/29 05:30:59;;;;;;;28.88;17.05;;;;;;;;;;4976008;28;20027;-71
2023/11/29 05:33:25;;;;;;;27.77;16.92;;;;;;;;;;4977239;28;20109;-73
2023/11/29 05:35:53;;;;;;;33.45;18.65;;;;;;;;;;4977173;28;20031;-71
2023/11/29 05:38:18;;;;;;;32.40;19.50;;;;;;;;;;4975867;28;20026;-72
2023/11/29 05:40:44;;;;;;;33.15;18.88;;;;;;;;;;4977464;28;20565;-72
2023/11/29 05:43:09;;;;;;;33.10;18.58;;;;;;;;;;4977238;28;20085;-72
2023/11/29 05:45:35;;;;;;;29.67;18.50;;;;;;;;;;4977133;28;20031;-72
2023/11/29 05:48:01;;;;;;;33.30;19.33;;;;;;;;;;4980528;28;20034;-72
2023/11/29 05:50:26;;;;;;;30.67;18.65;;;;;;;;;;4996470;28;20038;-72
2023/11/29 05:52:51;;;;;;;33.60;18.60;;;;;;;;;;4978618;28;20030;-72
2023/11/29 05:55:17;;;;;;;30.25;18.60;;;;;;;;;;4995816;28;20030;-73
2023/11/29 05:57:45;;;;;;;33.30;19.90;;;;;;;;;;4996228;28;20025;-73
2023/11/29 06:00:11;;;;;;;28.65;18.48;;;;;;;;;;4996208;28;20031;-73
2023/11/29 06:02:39;;;;;;;31.15;18.90;;;;;;;;;;4996428;28;20058;-73
2023/11/29 06:05:05;;;;;;;26.35;16.42;;;;;;;;;;4995191;28;20444;-73
2023/11/29 06:07:31;;;;;;;33.10;18.85;;;;;;;;;;4996579;28;20113;-73
2023/11/29 06:09:58;;;;;;;25.55;15.20;;;;;;;;;;4996029;28;20416;-73
2023/11/29 06:12:23;;;;;;;27.77;16.92;;;;;;;;;;4978899;28;20030;-73
2023/11/29 06:14:49;;;;;;;29.05;16.98;;;;;;;;;;4995090;28;20393;-73
2023/11/29 06:17:14;;;;;;;29.00;17.85;;;;;;;;;;5012866;28;20092;-73
2023/11/29 06:19:39;;;;;;;30.50;19.40;;;;;;;;;;4997858;28;20037;-73
2023/11/29 06:22:05;;;;;;;36.38;20.88;;;;;;;;;;5015130;28;20128;-74
2023/11/29 06:24:31;;;;;;;33.42;19.88;;;;;;;;;;5015915;28;20117;-72
2023/11/29 06:26:59;;;;;;;33.22;19.58;;;;;;;;;;5015217;28;20030;-72
2023/11/29 06:29:24;;;;;;;36.58;20.95;;;;;;;;;;5015587;28;20041;-73
2023/11/29 06:31:49;;;;;;;34.97;20.92;;;;;;;;;;5015094;28;20038;-73
2023/11/29 06:34:15;;;;;;;31.88;18.52;;;;;;;;;;4997582;28;20048;-73
2023/11/29 06:36:40;;;;;;;39.55;21.63;;;;;;;;;;5015245;28;20109;-73
2023/11/29 06:39:09;;;;;;;41.78;22.30;;;;;;;;;;4997460;28;20108;-73
2023/11/29 06:41:35;;;;;;;38.33;21.23;;;;;;;;;;5014618;28;20038;-73
2023/11/29 06:44:00;;;;;;;34.65;20.58;;;;;;;;;;5014172;28;20049;-73
2023/11/29 06:46:25;;;;;;;37.15;19.73;;;;;;;;;;5014793;28;20030;-73
2023/11/29 06:48:51;;;;;;;27.13;16.50;;;;;;;;;;5014295;28;20041;-73
2023/11/29 06:51:16;;;;;;;36.25;19.67;;;;;;;;;;4996619;28;20037;-73
2023/11/29 06:53:42;;;;;;;34.95;18.80;;;;;;;;;;5015067;28;20047;-73
2023/11/29 06:56:08;;;;;;;35.80;20.60;;;;;;;;;;4997097;28;20392;-73
2023/11/29 06:58:33;;;;;;;34.78;19.35;;;;;;;;;;4997105;28;20040;-73
2023/11/29 07:00:58;;;;;;;36.67;20.38;;;;;;;;;;5014824;28;20034;-73
2023/11/29 07:03:26;;;;;;;37.40;19.48;;;;;;;;;;5014575;28;20034;-73
2023/11/29 07:05:52;;;;;;;33.38;18.48;;;;;;;;;;4997063;28;20033;-73
2023/11/29 07:08:17;;;;;;;34.42;18.85;;;;;;;;;;5014494;28;20083;-73
2023/11/29 07:10:43;;;;;;;35.22;19.00;;;;;;;;;;5014729;28;20105;-73
2023/11/29 07:13:08;;;;;;;37.58;19.92;;;;;;;;;;4996809;28;20036;-73
2023/11/29 07:15:33;;;;;;;32.97;17.77;;;;;;;;;;5014335;28;20056;-73
2023/11/29 07:17:59;;;;;;;34.72;19.55;;;;;;;;;;5014268;28;20076;-73
2023/11/29 07:20:24;;;;;;;39.80;21.48;;;;;;;;;;4996831;28;20108;-73
2023/11/29 07:22:50;;;;;;;38.50;20.15;;;;;;;;;;5014170;28;20080;-73
2023/11/29 07:25:15;;;;;;;33.28;18.63;;;;;;;;;;5014216;28;20106;-73
2023/11/29 07:27:40;;;;;;;32.88;18.48;;;;;;;;;;5014510;28;20057;-73
2023/11/29 07:30:06;;;;;;;33.08;18.75;;;;;;;;;;5014411;28;20026;-73
2023/11/29 07:32:32;;;;;;;30.33;18.35;;;;;;;;;;5014387;28;20448;-73
2023/11/29 07:34:57;;;;;;;32.85;18.15;;;;;;;;;;5014094;28;20506;-73
2023/11/29 07:37:23;;;;;;;33.70;18.48;;;;;;;;;;5014310;28;20029;-73
2023/11/29 07:39:48;;;;;;;31.05;17.65;;;;;;;;;;4980230;28;20523;-73
2023/11/29 07:42:13;;;;;;;32.03;17.85;;;;;;;;;;4980206;28;20030;-73
2023/11/29 07:44:40;;;;;;;33.53;19.33;;;;;;;;;;5013966;28;20026;-73
2023/11/29 07:47:06;;;;;;;33.60;18.52;;;;;;;;;;5013984;28;20048;-73
2023/11/29 07:49:32;;;;;;;30.65;18.70;;;;;;;;;;5013796;28;20084;-73
2023/11/29 07:51:57;;;;;;;34.70;17.92;;;;;;;;;;5014283;28;20116;-73
2023/11/29 07:54:23;;;;;;;36.03;18.42;;;;;;;;;;4996740;28;20030;-73
2023/11/29 07:56:48;;;;;;;32.53;18.52;;;;;;;;;;5013848;28;20034;-73
2023/11/29 07:59:14;;;;;;;31.55;18.33;;;;;;;;;;5013806;28;20041;-68
2023/11/29 08:01:39;;;;;;;29.52;17.45;;;;;;;;;;4983031;23;1184895;-66
2023/11/29 08:04:05;;;;;;;30.98;18.27;;;;;;;;;;5014007;28;20129;-72
2023/11/29 08:06:30;;;;;;;36.83;19.45;;;;;;;;;;5014024;28;20061;-73
2023/11/29 08:08:56;;;;;;;39.47;21.55;;;;;;;;;;5014326;28;20026;-73
2023/11/29 08:11:21;;;;;;;40.03;21.60;;;;;;;;;;4996859;28;20034;-73
2023/11/29 08:13:47;;;;;;;39.50;21.42;;;;;;;;;;5013737;28;20448;-73
2023/11/29 08:16:12;;;;;;;36.38;21.58;;;;;;;;;;5014397;28;20357;-73
2023/11/29 08:18:38;;;;;;;37.75;22.40;;;;;;;;;;5013665;28;20034;-73
2023/11/29 08:21:03;;;;;;;38.90;22.02;;;;;;;;;;5013591;28;20029;-73
2023/11/29 08:23:28;;;;;;;40.20;23.17;;;;;;;;;;5014040;28;20132;-73
2023/11/29 08:25:54;;;;;;;32.95;19.35;;;;;;;;;;5013638;28;20033;-73
2023/11/29 08:28:20;;;;;;;37.70;20.08;;;;;;;;;;5014332;28;20021;-73
2023/11/29 08:30:47;;;;;;;33.08;19.77;;;;;;;;;;5000152;28;20384;-73
2023/11/29 08:33:12;;;;;;;29.63;16.73;;;;;;;;;;5017913;28;20062;-73
2023/11/29 08:35:37;;;;;;;30.08;16.85;;;;;;;;;;4999773;28;20053;-73
2023/11/29 08:38:03;;;;;;;25.48;14.55;;;;;;;;;;5017308;28;20041;-73
2023/11/29 08:40:28;;;;;;;30.83;16.67;;;;;;;;;;5017558;28;20026;-73
2023/11/29 08:42:53;;;;;;;26.42;16.00;;;;;;;;;;5017138;28;20388;-73
2023/11/29 08:45:19;;;;;;;28.63;16.42;;;;;;;;;;4999585;28;20034;-73
2023/11/29 08:47:45;;;;;;;27.08;15.82;;;;;;;;;;5017680;28;20038;-73
2023/11/29 08:50:10;;;;;;;28.67;16.75;;;;;;;;;;5017351;28;20038;-73
2023/11/29 08:52:36;;;;;;;24.70;12.60;;;;;;;;;;5016277;28;20029;-73
2023/11/29 08:55:02;;;;;;;26.45;15.75;;;;;;;;;;5016982;28;20112;-73
2023/11/29 08:57:27;;;;;;;25.90;13.27;;;;;;;;;;5016930;28;20116;-73
2023/11/29 08:59:52;;;;;;;22.63;13.82;;;;;;;;;;4999631;28;20121;-73
2023/11/29 09:02:20;;;;;;;21.40;13.23;;;;;;;;;;5015504;28;20053;-73
2023/11/29 09:04:45;;;;;;;23.75;13.85;;;;;;;;;;5017082;28;20026;-73
2023/11/29 09:07:10;;;;;;;26.85;14.07;;;;;;;;;;5017282;28;20026;-73
2023/11/29 09:09:36;;;;;;;29.92;15.85;;;;;;;;;;5015443;28;20032;-73
2023/11/29 09:12:03;;;;;;;27.50;14.70;;;;;;;;;;5016616;28;20030;-73
2023/11/29 09:14:29;;;;;;;25.85;14.48;;;;;;;;;;5016587;28;20044;-73
2023/11/29 09:16:56;;;;;;;25.33;14.32;;;;;;;;;;5016594;28;20040;-73
2023/11/29 09:19:22;;;;;;;29.88;17.10;;;;;;;;;;5016803;28;20025;-73
2023/11/29 09:21:47;;;;;;;27.83;15.77;;;;;;;;;;5016699;28;20042;-73
2023/11/29 09:24:12;;;;;;;21.13;11.68;;;;;;;;;;4999198;28;20461;-73
2023/11/29 09:26:39;;;;;;;22.65;11.90;;;;;;;;;;5016424;28;20512;-73
2023/11/29 09:29:05;;;;;;;22.63;13.35;;;;;;;;;;5016344;28;20022;-73
2023/11/29 09:31:30;;;;;;;23.08;12.98;;;;;;;;;;5016292;28;20080;-73
2023/11/29 09:33:57;;;;;;;23.13;13.63;;;;;;;;;;5016230;28;20388;-73
2023/11/29 09:36:22;;;;;;;24.10;13.95;;;;;;;;;;5016812;28;20112;-73
2023/11/29 09:38:48;;;;;;;25.17;14.90;;;;;;;;;;5016464;28;20080;-73
2023/11/29 09:41:13;;;;;;;23.65;13.18;;;;;;;;;;5014817;28;20034;-73
2023/11/29 09:43:39;;;;;;;23.50;12.73;;;;;;;;;;5016643;28;20037;-73
2023/11/29 09:46:04;;;;;;;21.75;12.05;;;;;;;;;;4998474;28;20112;-72
2023/11/29 09:48:30;;;;;;;21.50;13.60;;;;;;;;;;5016230;28;20110;-73
2023/11/29 09:50:56;;;;;;;21.83;12.75;;;;;;;;;;5015943;28;20030;-72
2023/11/29 09:53:22;;;;;;;23.38;13.57;;;;;;;;;;5016210;28;20030;-73
2023/11/29 09:55:47;;;;;;;22.33;13.55;;;;;;;;;;5016122;28;20033;-73
2023/11/29 09:58:13;;;;;;;21.63;13.10;;;;;;;;;;5016347;28;20030;-73
2023/11/29 10:00:39;;;;;;;21.65;12.80;;;;;;;;;;5016039;28;20354;-73
2023/11/29 10:03:12;;;;;;;21.70;13.20;;;;;;;;;;5015770;28;20050;-73
2023/11/29 10:05:38;;;;;;;23.25;14.50;;;;;;;;;;5016235;28;20061;-73
2023/11/29 10:08:03;;;;;;;23.52;13.13;;;;;;;;;;5016174;28;20042;-73
2023/11/29 10:10:33;;;;;;;20.60;13.07;;;;;;;;;;5015843;28;20032;-73
2023/11/29 10:12:58;;;;;;;19.17;12.07;;;;;;;;;;5015807;28;20083;-73
2023/11/29 10:15:23;;;;;;;21.25;12.68;;;;;;;;;;4981813;28;20038;-73
2023/11/29 10:17:50;;;;;;;16.85;10.98;;;;;;;;;;4997980;28;20113;-73
2023/11/29 10:20:15;;;;;;;18.23;12.20;;;;;;;;;;5015459;28;20113;-73
2023/11/29 10:22:41;;;;;;;16.05;10.15;;;;;;;;;;5015276;28;20124;-73
2023/11/29 10:25:17;;;;;;;18.77;11.18;;;;;;;;;;5015545;28;20022;-73
2023/11/29 10:27:43;;;;;;;20.60;11.18;;;;;;;;;;5013964;28;20052;-73
2023/11/29 10:30:09;;;;;;;15.93;10.35;;;;;;;;;;5015234;28;20100;-73
2023/11/29 10:32:34;;;;;;;15.85;10.57;;;;;;;;;;5015706;28;20041;-73
2023/11/29 10:35:00;;;;;;;23.48;12.65;;;;;;;;;;5015435;28;20042;-72
2023/11/29 10:37:25;;;;;;;20.70;13.00;;;;;;;;;;5015069;28;20041;-72
2023/11/29 10:39:53;;;;;;;19.20;12.07;;;;;;;;;;5015262;28;20036;-72
2023/11/29 10:42:19;;;;;;;16.38;10.98;;;;;;;;;;5015023;28;20037;-72
2023/11/29 10:44:47;;;;;;;28.40;18.30;;;;;;;;;;5015231;28;20010;-72
2023/11/29 10:47:18;;;;;;;19.67;12.85;;;;;;;;;;5015176;28;20041;-72
2023/11/29 10:49:46;;;;;;;26.63;16.55;;;;;;;;;;5015125;28;20029;-72
2023/11/29 10:52:12;;;;;;;20.48;13.48;;;;;;;;;;5014389;28;20037;-72
2023/11/29 10:54:37;;;;;;;20.92;11.73;;;;;;;;;;5015321;28;20026;-72
2023/11/29 10:57:03;;;;;;;22.42;12.38;;;;;;;;;;5014975;28;20037;-72
2023/11/29 10:59:31;;;;;;;22.08;12.73;;;;;;;;;;5014962;28;20038;-72
2023/11/29 11:01:57;;;;;;;20.52;11.90;;;;;;;;;;5013617;28;20058;-72
2023/11/29 11:04:41;;;;;;;24.13;14.13;;;;;;;;;;5014606;28;20059;-72
2023/11/29 11:07:27;;;;;;;20.70;12.90;;;;;;;;;;5015031;28;20068;-72
2023/11/29 11:09:56;;;;;;;21.48;13.13;;;;;;;;;;5014332;28;20037;-72
2023/11/29 11:12:41;;;;;;;23.00;14.27;;;;;;;;;;5015016;28;20030;-72
2023/11/29 11:15:07;;;;;;;25.63;13.15;;;;;;;;;;5014004;28;20046;-72
2023/11/29 11:17:34;;;;;;;24.17;13.90;;;;;;;;;;4997414;28;20067;-72
2023/11/29 11:20:04;;;;;;;16.77;10.32;;;;;;;;;;4996681;28;20025;-72
2023/11/29 11:22:31;;;;;;;25.05;15.07;;;;;;;;;;4980552;28;20041;-72
2023/11/29 11:24:58;;;;;;;32.63;18.38;;;;;;;;;;5014519;28;20048;-72
2023/11/29 11:27:25;;;;;;;32.33;17.10;;;;;;;;;;5014258;28;20472;-72
2023/11/29 11:29:51;;;;;;;26.25;13.38;;;;;;;;;;5014484;28;20053;-72
2023/11/29 11:32:36;;;;;;;28.33;14.60;;;;;;;;;;5014475;28;20099;-72
2023/11/29 11:35:34;;;;;;;22.80;13.27;;;;;;;;;;4983270;28;20480;-72
2023/11/29 11:38:03;;;;;;;17.70;10.07;;;;;;;;;;4938539;28;20498;-72
2023/11/29 11:40:30;;;;;;;22.63;13.73;;;;;;;;;;5012993;28;20034;-72
2023/11/29 11:42:56;;;;;;;22.58;12.98;;;;;;;;;;4996735;28;20116;-72
2023/11/29 11:45:22;;;;;;;28.90;17.30;;;;;;;;;;5012723;28;20464;-72
2023/11/29 11:47:48;;;;;;;24.63;13.70;;;;;;;;;;5012796;28;20030;-73
2023/11/29 11:50:14;;;;;;;18.38;11.55;;;;;;;;;;5013947;28;20435;-72
2023/11/29 11:52:39;;;;;;;19.48;12.00;;;;;;;;;;4996371;28;20025;-72
2023/11/29 11:55:05;;;;;;;18.45;11.68;;;;;;;;;;5014200;28;20080;-72
2023/11/29 11:57:31;;;;;;;18.98;10.75;;;;;;;;;;4996628;28;20077;-72
2023/11/29 11:59:57;;;;;;;22.35;12.80;;;;;;;;;;5013868;28;20034;-72
2023/11/29 12:02:22;;;;;;;17.73;11.35;;;;;;;;;;5013788;28;20054;-72
2023/11/29 12:04:51;;;;;;;19.33;11.98;;;;;;;;;;4999947;28;20480;-66
2023/11/29 12:07:19;;;;;;;18.70;10.15;;;;;;;;;;5018150;28;20034;-66
2023/11/29 12:09:46;;;;;;;18.35;11.60;;;;;;;;;;5018359;28;20029;-66
2023/11/29 12:12:12;;;;;;;18.73;11.77;;;;;;;;;;5017787;28;20174;-67
2023/11/29 12:14:45;;;;;;;22.10;12.85;;;;;;;;;;5018024;28;20057;-66
2023/11/29 12:17:13;;;;;;;17.27;10.65;;;;;;;;;;5017687;28;20037;-66
2023/11/29 12:19:39;;;;;;;18.42;10.73;;;;;;;;;;5017958;28;20473;-66
2023/11/29 12:22:05;;;;;;;18.80;11.95;;;;;;;;;;5017551;28;20053;-66
2023/11/29 12:24:38;;;;;;;20.75;11.52;;;;;;;;;;5017833;28;20511;-66
2023/11/29 12:27:09;;;;;;;16.95;9.77;;;;;;;;;;5017775;28;20026;-66
2023/11/29 12:29:35;;;;;;;18.30;11.52;;;;;;;;;;5000267;28;20453;-66
2023/11/29 12:32:01;;;;;;;19.10;13.10;;;;;;;;;;5017412;28;20030;-66
2023/11/29 12:34:26;;;;;;;25.65;14.38;;;;;;;;;;5017398;28;20034;-66
2023/11/29 12:36:54;;;;;;;18.92;12.90;;;;;;;;;;5017723;28;20038;-66
2023/11/29 12:39:19;;;;;;;22.30;14.57;;;;;;;;;;5017553;28;20100;-66
2023/11/29 12:41:44;;;;;;;16.75;11.30;;;;;;;;;;4999938;28;20493;-66
2023/11/29 12:44:10;;;;;;;20.30;13.00;;;;;;;;;;5017468;28;20029;-66
2023/11/29 12:46:35;;;;;;;67.63;26.90;;;;;;;;;;4999835;28;20022;-66
2023/11/29 12:49:01;;;;;;;43.78;20.15;;;;;;;;;;5017085;28;20427;-66
2023/11/29 12:51:27;;;;;;;25.30;14.05;;;;;;;;;;5017328;28;20105;-66
2023/11/29 12:53:52;;;;;;;22.48;13.65;;;;;;;;;;5017011;28;20025;-66
2023/11/29 12:56:17;;;;;;;18.60;12.15;;;;;;;;;;5017289;28;20029;-66
2023/11/29 12:58:43;;;;;;;20.42;12.75;;;;;;;;;;5016924;28;20453;-66
2023/11/29 13:01:08;;;;;;;25.40;14.98;;;;;;;;;;5016892;28;20380;-66
2023/11/29 13:03:34;;;;;;;24.50;15.98;;;;;;;;;;5016970;28;20051;-66
2023/11/29 13:06:00;;;;;;;35.35;20.33;;;;;;;;;;4999172;28;20065;-65
2023/11/29 13:08:26;;;;;;;48.70;28.63;;;;;;;;;;5016739;28;20109;-66
2023/11/29 13:10:52;;;;;;;49.10;29.65;;;;;;;;;;4999210;28;20067;-66
2023/11/29 13:13:18;;;;;;;52.58;32.00;;;;;;;;;;5028993;22;20054;-72
2023/11/29 13:15:43;;;;;;;31.45;18.98;;;;;;;;;;5043444;23;20128;-72
2023/11/29 13:18:09;;;;;;;33.58;18.92;;;;;;;;;;4999205;28;20125;-66
2023/11/29 13:20:36;;;;;;;34.60;19.27;;;;;;;;;;4998319;28;20010;-66
2023/11/29 13:23:02;;;;;;;28.05;17.38;;;;;;;;;;5016113;28;20365;-65
2023/11/29 13:25:47;;;;;;;34.33;18.88;;;;;;;;;;5016130;28;20025;-66
2023/11/29 13:28:13;;;;;;;34.42;19.38;;;;;;;;;;5011217;28;20049;-66
2023/11/29 13:30:38;;;;;;;26.20;16.75;;;;;;;;;;5015428;28;20400;-65
2023/11/29 13:33:03;;;;;;;27.50;17.52;;;;;;;;;;5015849;28;20414;-65
2023/11/29 13:35:29;;;;;;;29.60;17.63;;;;;;;;;;4982094;28;20032;-65
2023/11/29 13:37:54;;;;;;;28.08;16.95;;;;;;;;;;5016220;28;20392;-65
2023/11/29 13:40:20;;;;;;;28.00;17.60;;;;;;;;;;4998353;28;20034;-65
2023/11/29 13:42:45;;;;;;;26.70;16.33;;;;;;;;;;4982000;28;20096;-65
2023/11/29 13:45:10;;;;;;;34.13;19.60;;;;;;;;;;5015642;28;20388;-65
2023/11/29 13:47:38;;;;;;;54.45;28.00;;;;;;;;;;5015491;28;20025;-71
2023/11/29 13:50:04;;;;;;;60.10;31.38;;;;;;;;;;4998142;28;20026;-64
2023/11/29 13:52:29;;;;;;;70.35;36.83;;;;;;;;;;5015730;28;20020;-65
2023/11/29 13:54:55;;;;;;;51.78;27.92;;;;;;;;;;5015274;28;20060;-65
2023/11/29 13:57:20;;;;;;;49.53;26.73;;;;;;;;;;5015731;28;20422;-65
2023/11/29 13:59:46;;;;;;;49.80;27.05;;;;;;;;;;5016271;28;20244;-65
2023/11/29 14:02:12;;;;;;;42.58;24.40;;;;;;;;;;4997464;28;20084;-65
2023/11/29 14:04:37;;;;;;;38.78;23.20;;;;;;;;;;5014090;28;20040;-64
2023/11/29 14:07:04;;;;;;;39.13;24.17;;;;;;;;;;4996555;28;20029;-65
2023/11/29 14:09:33;;;;;;;64.53;36.72;;;;;;;;;;5014020;28;20081;-65